默认 日期 大小 文件数 浏览量 最新下载 xml
1992 s磁力链接相关资源由用户搜索指令自动获取,结果来源于网络,本站不存储任何资料,亦不承担任何责任,请于24小时内删除,搜索到1066个磁力,用时24ms。
    ... 04.jpg": 1499725, "Baltimoore - There's No Danger On The Roof ... .ape": 249499288, "Baltimoore - There's No Danger On The Roof ... .cue": 1389, "Baltimoore - There's No Danger On The Roof ...
创建时间: 2019-11-08 13:55:12 大小:247.84 MB 文件数量:10 热度:9 最近下载:2025-02-03 04:52:03
    ... 1448429568}, "Frosty's Winter Wonderland 1976": ... s Winter Wonderland 1976.mpg": 1521606656}, "The Teddy Bears' Christmas 1992 ... Teddy Bears' Christmas 1992.mpg": 1441425408, " ... s First Christmas 1979 Animation.jpg": 87549, "The Teddy Bears' Christmas 1992 ...
创建时间: 2019-11-17 18:49:23 大小:8.08 GB 文件数量:52 热度:10 最近下载:2025-09-20 03:51:03
    ... "Lethal.Weapon.2.[Director's.Cut].1989.DVDRip.Ukr.by ... "Lethal.Weapon.3.[Director's.Cut].1992.DVDRip.Ukr.by.Demrandir ... .avi": 2321453056, "Lethal.Weapon.[Director's ... "Lethal.Weapon.3.[Director's.Cut].1992.DVDRip.Ukr.by.Demrandir_forced ...
创建时间: 2019-11-20 18:35:21 大小:6.37 GB 文件数量:6 热度:6 最近下载:2025-02-08 10:01:54
    ... - Back.jpg": 3262944, "1992-09-26 Honolulu - Disc.jpg ... Honolulu - Front.jpg": 2430754, "1992-09-26 Honolulu - iTunes.jpg ... ": 286210, "1992-09-26 Honolulu - Boxshot.jpg ... ": 376390, "1992-09-26 Honolulu - Tray bleed ...
创建时间: 2019-11-24 19:53:15 大小:179.04 MB 文件数量:28 热度:5 最近下载:2023-12-25 10:20:03
    ... .jpg": 119306, "10000 lépés.cue": 1136, "03 - Tűzvihar ... ": 31889856, "Omega - 10000 lépés.log": 5093, "07 - Tízezer ... lépés.flac": 42096126, "01 - Petróleum ...
创建时间: 2019-11-27 02:55:27 大小:292.38 MB 文件数量:15 热度:10 最近下载:2025-04-22 00:37:02
    ... ": 10851524, "Lester Young - The Master's Touch.cue": 4212, "Lester Young ... - The Master's Touch.log": 5703, "Lester Young ... - The Master's Touch.m3u": 1869, "10 - Salut ...
创建时间: 2019-11-28 14:12:51 大小:192.08 MB 文件数量:29 热度:5 最近下载:2024-12-17 18:58:02
    {"original": {"pj1992-02-26.CUE": 962, "pj1992-02-26.txt": 622}, "pjshows.txt": 381, "1-05 Deep.mp3": 12147922, "1-10 Once.mp3": 9971399, "1-06 Alive.mp3": 12803074, "1-08 Black.mp3": 13859466, "1-11 Porch.mp3": 22217604, "1-13 Leash.mp3": 8676772, "1-01 ...
创建时间: 2019-11-28 18:24:49 大小:149.04 MB 文件数量:16 热度:14 最近下载:2025-01-06 02:25:01
    ... .jpg": 119306, "10000 lépés.cue": 1123, "03 - Tűzvihar ... ": 26812663, "Omega - 10000 lépés.log": 5056, "07 - Tízezer ... lépés.flac": 36557949, "01 - Petróleum ...
创建时间: 2019-11-29 17:32:30 大小:249.38 MB 文件数量:15 热度:8 最近下载:2025-03-06 03:15:02
    {"Golden Girls - Kinetic.jpg": 8765, "Golden Girls - Kinetic - Label.jpg": 33467, "B. Golden Girls - Kinetic (Orbital Mix).flac": 51655298, "A. Golden Girls - Kinetic (Remixed By Frank De Wulf).flac": 37730930}
创建时间: 2019-11-30 03:29:33 大小:85.29 MB 文件数量:4 热度:5 最近下载:2025-01-04 11:37:03
    ... , "matrix.jpg": 249930, "Fancyfluid - King's Journey.cue": 1501, "Fancyfluid - King ... 's Journey.log": 6618, "Fancyfluid - King's Journey.flac": 328332088, "Fancyfluid - King's ...
创建时间: 2019-12-01 06:03:14 大小:337.56 MB 文件数量:17 热度:4 最近下载:2025-04-18 17:36:01
    ... Love.mp3": 7918504, "03 - Shakespear's Sister - Stay.mp3": 9130586, "18 ... ": 9447190, "08 - Opus III - It's A Fine Day.mp3": 8575746 ...
创建时间: 2019-12-02 05:38:45 大小:315.3 MB 文件数量:36 热度:5 最近下载:2023-12-26 08:03:02
    {"1992.Wayne's.World.1920x1080.BDRip.x264.TrueHD.mkv": 12251828293, "1993.Wayne's.World.2.1920x1080.BDRip.x264.TrueHD.mkv": 13059214752, "Torrent_downloaded_from_Demonoid_-_www.demonoid.pw_.txt": 59}
创建时间: 2019-12-03 19:39:28 大小:23.57 GB 文件数量:3 热度:8 最近下载:2025-04-11 03:58:01
    ... 13050246, "Sophisticated Lady (Duke's Greatest Hits).cue": 2595, ... "Sophisticated Lady (Duke's Greatest Hits).accurip": 2465, ... Ellington - Sophisticated Lady (Duke's Greatest Hits).log": 18170, ... Ellington - Sophisticated Lady (Duke's Greatest Hits).m3u": 516, ...
创建时间: 2019-12-06 22:04:57 大小:185.72 MB 文件数量:22 热度:12 最近下载:2025-09-19 23:42:04
    {"BDMV": {"BACKUP": {"CLIPINF": {"00000.clpi": 40372, "00001.clpi": 296, "00002.clpi": 9060, "00003.clpi": 5140, "00004.clpi": 440, "00005.clpi": 444, "00006.clpi": 468, "00007.clpi": 1052, "00008.clpi": 1060}, "PLAYLIST": {"00000.mpls": 312, "00001.mpls": ...
创建时间: 2019-12-07 18:13:30 大小:31.19 GB 文件数量:49 热度:7 最近下载:2025-04-02 02:24:02
    {"Benny's.Video.1992.BluRay.720p.x264.DTS-MySiLu.mkv": 6441751623, "Benny's.Video.1992.BluRay.720p.x264.DTS-MySiLu.nfo": 3702, "Benny's.Video.1992.BluRay.720p.x264.DTS-MySiLu.Sample.mkv": 53554945}
创建时间: 2019-12-09 03:49:27 大小:6.05 GB 文件数量:3 热度:7 最近下载:2025-08-04 23:04:07
    ... , "Lethal.Weapon.3.[Directors.Cut].1992.Ukr.[5.1-384].23 ... , "Lethal.Weapon.3.[Directors.Cut].1992.Ukr.[5.1-384].23 ... , "Lethal.Weapon.3.[Directors.Cut].1992.Ukr.[ICTV].[2.0-192 ...
创建时间: 2019-12-09 20:33:14 大小:1.33 GB 文件数量:8 热度:12 最近下载:2025-01-10 01:52:02
    ... - The Glen Glenn Story & Everybody's Movin' Again.wv": 298914200, "Glen ... - The Glen Glenn Story & Everybody's Movin' Again.cue": 4432, "Glen ... - The Glen Glenn Story & Everybody's Movin' Again.log": 10876}
创建时间: 2019-12-11 00:55:33 大小:300.02 MB 文件数量:8 热度:5 最近下载:2023-12-28 08:33:05
    ... , "Booklet Outside.JPG": 4273752}, "Wayne's World.cue": 2550, "Various - Wayne ... 's World.log": 6492, "03. BulletBoys - ... Myers and Dana Carvey) - Wayne's World Theme (Extended Version).flac ...
创建时间: 2019-12-11 09:19:33 大小:399.96 MB 文件数量:19 热度:6 最近下载:2025-03-21 12:33:03
    ... Lee.mp3": 1960733, "05 That's me.mp3": 2288831, "01 Moon ... 's rock.mp3": 2299280, "23 Make ... .mp3": 2389141, "21 My baby's gone.mp3": 2099077, "03 Pipeliner ... .mp3": 2172220, "19 Anything that's part of you.mp3": 3181592 ...
创建时间: 2019-12-13 05:42:54 大小:69.62 MB 文件数量:33 热度:3 最近下载:2023-12-28 15:59:02
    ... Of....flac": 23926370, "John McVie's ''Gotta Band'' with Lola Thomas ... .cue": 2147, "John McVie's ''Gotta Band'' with Lola Thomas ... - John McVie's ''Gotta Band'' with Lola Thomas ...
创建时间: 2019-12-20 16:46:50 大小:276.63 MB 文件数量:24 热度:6 最近下载:2023-12-29 00:42:05